sensor_id;sensor_type;location;lat;lon;timestamp;pressure;altitude;pressure_sealevel;temperature;humidity
16580;BME280;8402;51.466;6.806;2023-01-28T00:01:13;102572.97;;;4.67;94.26
16580;BME280;8402;51.466;6.806;2023-01-28T00:03:43;102576.25;;;4.69;94.13
16580;BME280;8402;51.466;6.806;2023-01-28T00:06:16;102569.69;;;4.65;93.95
16580;BME280;8402;51.466;6.806;2023-01-28T00:08:47;102570.03;;;4.69;94.38
16580;BME280;8402;51.466;6.806;2023-01-28T00:11:17;102567.50;;;4.74;94.65
16580;BME280;8402;51.466;6.806;2023-01-28T00:13:49;102568.91;;;4.77;94.38
16580;BME280;8402;51.466;6.806;2023-01-28T00:16:20;102571.25;;;4.73;92.88
16580;BME280;8402;51.466;6.806;2023-01-28T00:18:53;102576.25;;;4.69;93.41
16580;BME280;8402;51.466;6.806;2023-01-28T00:21:25;102568.16;;;4.69;93.79
16580;BME280;8402;51.466;6.806;2023-01-28T00:23:55;102562.13;;;4.74;94.44
16580;BME280;8402;51.466;6.806;2023-01-28T00:26:25;102569.38;;;4.74;93.67
16580;BME280;8402;51.466;6.806;2023-01-28T00:28:55;102575.19;;;4.70;93.16
16580;BME280;8402;51.466;6.806;2023-01-28T00:31:25;102579.97;;;4.68;93.51
16580;BME280;8402;51.466;6.806;2023-01-28T00:33:56;102576.84;;;4.72;94.25
16580;BME280;8402;51.466;6.806;2023-01-28T00:36:28;102570.41;;;4.73;94.55
16580;BME280;8402;51.466;6.806;2023-01-28T00:38:59;102578.25;;;4.74;94.08
16580;BME280;8402;51.466;6.806;2023-01-28T00:41:29;102585.34;;;4.68;93.11
16580;BME280;8402;51.466;6.806;2023-01-28T00:43:59;102578.94;;;4.69;93.53
16580;BME280;8402;51.466;6.806;2023-01-28T00:46:29;102575.41;;;4.69;93.27
16580;BME280;8402;51.466;6.806;2023-01-28T00:48:59;102581.28;;;4.66;93.31
16580;BME280;8402;51.466;6.806;2023-01-28T00:51:32;102579.25;;;4.61;93.22
16580;BME280;8402;51.466;6.806;2023-01-28T00:54:02;102577.16;;;4.63;93.86
16580;BME280;8402;51.466;6.806;2023-01-28T00:56:32;102576.13;;;4.64;93.56
16580;BME280;8402;51.466;6.806;2023-01-28T00:59:02;102578.69;;;4.59;92.65
16580;BME280;8402;51.466;6.806;2023-01-28T01:01:33;102577.25;;;4.57;93.27
16580;BME280;8402;51.466;6.806;2023-01-28T01:04:03;102587.19;;;4.56;93.16
16580;BME280;8402;51.466;6.806;2023-01-28T01:06:38;102583.75;;;4.49;92.27
16580;BME280;8402;51.466;6.806;2023-01-28T01:09:10;102578.63;;;4.48;92.78
16580;BME280;8402;51.466;6.806;2023-01-28T01:11:40;102581.16;;;4.42;92.59
16580;BME280;8402;51.466;6.806;2023-01-28T01:14:10;102575.22;;;4.40;93.13
16580;BME280;8402;51.466;6.806;2023-01-28T01:16:40;102571.34;;;4.36;92.70
16580;BME280;8402;51.466;6.806;2023-01-28T01:19:09;102574.16;;;4.41;92.95
16580;BME280;8402;51.466;6.806;2023-01-28T01:21:55;102571.69;;;4.40;92.89
16580;BME280;8402;51.466;6.806;2023-01-28T01:24:25;102574.53;;;4.45;93.17
16580;BME280;8402;51.466;6.806;2023-01-28T01:26:55;102571.25;;;4.43;92.79
16580;BME280;8402;51.466;6.806;2023-01-28T01:29:25;102580.81;;;4.39;92.14
16580;BME280;8402;51.466;6.806;2023-01-28T01:31:55;102576.50;;;4.38;92.41
16580;BME280;8402;51.466;6.806;2023-01-28T01:34:25;102577.63;;;4.30;91.62
16580;BME280;8402;51.466;6.806;2023-01-28T01:36:58;102586.34;;;4.26;91.81
16580;BME280;8402;51.466;6.806;2023-01-28T01:39:27;102587.25;;;4.20;91.34
16580;BME280;8402;51.466;6.806;2023-01-28T01:41:57;102596.03;;;4.15;91.32
16580;BME280;8402;51.466;6.806;2023-01-28T01:44:46;102596.09;;;4.08;90.80
16580;BME280;8402;51.466;6.806;2023-01-28T01:47:23;102604.16;;;4.08;91.24
16580;BME280;8402;51.466;6.806;2023-01-28T01:49:54;102609.84;;;4.00;90.68
16580;BME280;8402;51.466;6.806;2023-01-28T01:52:31;102601.38;;;3.97;90.87
16580;BME280;8402;51.466;6.806;2023-01-28T01:55:07;102601.63;;;3.95;90.83
16580;BME280;8402;51.466;6.806;2023-01-28T01:57:40;102598.78;;;3.90;90.71
16580;BME280;8402;51.466;6.806;2023-01-28T02:00:11;102617.88;;;3.82;90.16
16580;BME280;8402;51.466;6.806;2023-01-28T02:02:44;102610.47;;;3.77;90.00
16580;BME280;8402;51.466;6.806;2023-01-28T02:05:16;102618.75;;;3.76;90.75
16580;BME280;8402;51.466;6.806;2023-01-28T02:07:51;102615.91;;;3.71;90.41
16580;BME280;8402;51.466;6.806;2023-01-28T02:10:44;102618.88;;;3.63;89.22
16580;BME280;8402;51.466;6.806;2023-01-28T02:13:15;102631.25;;;3.64;89.89
16580;BME280;8402;51.466;6.806;2023-01-28T02:15:47;102623.88;;;3.59;89.62
16580;BME280;8402;51.466;6.806;2023-01-28T02:18:18;102628.44;;;3.58;89.92
16580;BME280;8402;51.466;6.806;2023-01-28T02:21:09;102638.25;;;3.46;88.65
16580;BME280;8402;51.466;6.806;2023-01-28T02:23:59;102639.22;;;3.52;89.70
16580;BME280;8402;51.466;6.806;2023-01-28T02:26:48;102630.19;;;3.46;89.59
16580;BME280;8402;51.466;6.806;2023-01-28T02:29:26;102621.03;;;3.54;90.47
16580;BME280;8402;51.466;6.806;2023-01-28T02:32:05;102623.13;;;3.52;89.33
16580;BME280;8402;51.466;6.806;2023-01-28T02:34:40;102628.91;;;3.49;89.32
16580;BME280;8402;51.466;6.806;2023-01-28T02:37:14;102628.09;;;3.48;89.35
16580;BME280;8402;51.466;6.806;2023-01-28T02:39:48;102632.22;;;3.51;89.85
16580;BME280;8402;51.466;6.806;2023-01-28T02:42:23;102633.31;;;3.43;88.68
16580;BME280;8402;51.466;6.806;2023-01-28T02:44:56;102628.56;;;3.45;89.40
16580;BME280;8402;51.466;6.806;2023-01-28T02:47:26;102633.47;;;3.48;89.46
16580;BME280;8402;51.466;6.806;2023-01-28T02:50:11;102634.69;;;3.52;90.21
16580;BME280;8402;51.466;6.806;2023-01-28T02:52:55;102632.81;;;3.53;89.53
16580;BME280;8402;51.466;6.806;2023-01-28T02:55:47;102633.94;;;3.64;91.00
16580;BME280;8402;51.466;6.806;2023-01-28T02:58:26;102624.66;;;3.66;90.59
16580;BME280;8402;51.466;6.806;2023-01-28T03:01:09;102618.47;;;3.66;89.68
16580;BME280;8402;51.466;6.806;2023-01-28T03:03:46;102621.72;;;3.68;89.81
16580;BME280;8402;51.466;6.806;2023-01-28T03:06:21;102620.91;;;3.67;89.54
16580;BME280;8402;51.466;6.806;2023-01-28T03:08:56;102619.03;;;3.68;90.07
16580;BME280;8402;51.466;6.806;2023-01-28T03:11:41;102621.72;;;3.68;90.49
16580;BME280;8402;51.466;6.806;2023-01-28T03:14:25;102616.72;;;3.71;90.73
16580;BME280;8402;51.466;6.806;2023-01-28T03:17:15;102615.84;;;3.77;91.43
16580;BME280;8402;51.466;6.806;2023-01-28T03:19:59;102612.03;;;3.85;92.13
16580;BME280;8402;51.466;6.806;2023-01-28T03:22:45;102614.47;;;3.93;91.88
16580;BME280;8402;51.466;6.806;2023-01-28T03:25:28;102615.63;;;3.97;92.08
16580;BME280;8402;51.466;6.806;2023-01-28T03:28:14;102608.41;;;3.98;91.66
16580;BME280;8402;51.466;6.806;2023-01-28T03:31:02;102609.44;;;3.97;91.86
16580;BME280;8402;51.466;6.806;2023-01-28T03:33:50;102603.25;;;3.96;91.35
16580;BME280;8402;51.466;6.806;2023-01-28T03:36:33;102602.78;;;3.99;91.85
16580;BME280;8402;51.466;6.806;2023-01-28T03:39:18;102607.56;;;3.97;91.14
16580;BME280;8402;51.466;6.806;2023-01-28T03:41:56;102612.34;;;3.95;91.08
16580;BME280;8402;51.466;6.806;2023-01-28T03:44:26;102610.50;;;3.96;91.33
16580;BME280;8402;51.466;6.806;2023-01-28T03:47:09;102619.13;;;3.98;91.35
16580;BME280;8402;51.466;6.806;2023-01-28T03:49:44;102618.91;;;3.99;91.93
16580;BME280;8402;51.466;6.806;2023-01-28T03:52:15;102630.03;;;4.03;91.97
16580;BME280;8402;51.466;6.806;2023-01-28T03:54:46;102622.28;;;3.95;90.15
16580;BME280;8402;51.466;6.806;2023-01-28T03:57:19;102624.59;;;3.91;90.63
16580;BME280;8402;51.466;6.806;2023-01-28T03:59:49;102627.72;;;3.88;89.69
16580;BME280;8402;51.466;6.806;2023-01-28T04:02:20;102625.69;;;3.83;89.87
16580;BME280;8402;51.466;6.806;2023-01-28T04:04:55;102628.22;;;3.78;89.70
16580;BME280;8402;51.466;6.806;2023-01-28T04:07:25;102629.94;;;3.73;89.36
16580;BME280;8402;51.466;6.806;2023-01-28T04:09:55;102639.31;;;3.64;88.05
16580;BME280;8402;51.466;6.806;2023-01-28T04:12:25;102642.00;;;3.64;89.37
16580;BME280;8402;51.466;6.806;2023-01-28T04:14:54;102650.66;;;3.66;90.33
16580;BME280;8402;51.466;6.806;2023-01-28T04:17:24;102639.06;;;3.72;90.59
16580;BME280;8402;51.466;6.806;2023-01-28T04:19:57;102636.56;;;3.70;89.46
16580;BME280;8402;51.466;6.806;2023-01-28T04:22:27;102643.66;;;3.65;88.01
16580;BME280;8402;51.466;6.806;2023-01-28T04:24:56;102643.03;;;3.63;88.24
16580;BME280;8402;51.466;6.806;2023-01-28T04:27:26;102645.34;;;3.59;88.15
16580;BME280;8402;51.466;6.806;2023-01-28T04:29:56;102645.34;;;3.59;88.41
16580;BME280;8402;51.466;6.806;2023-01-28T04:32:26;102648.28;;;3.57;88.30
16580;BME280;8402;51.466;6.806;2023-01-28T04:34:58;102646.84;;;3.55;88.62
16580;BME280;8402;51.466;6.806;2023-01-28T04:37:28;102648.28;;;3.57;89.28
16580;BME280;8402;51.466;6.806;2023-01-28T04:39:58;102653.47;;;3.52;88.13
16580;BME280;8402;51.466;6.806;2023-01-28T04:42:28;102647.13;;;3.47;86.97
16580;BME280;8402;51.466;6.806;2023-01-28T04:44:57;102649.44;;;3.43;86.87
16580;BME280;8402;51.466;6.806;2023-01-28T04:47:27;102655.88;;;3.36;85.77
16580;BME280;8402;51.466;6.806;2023-01-28T04:50:00;102652.81;;;3.32;85.93
16580;BME280;8402;51.466;6.806;2023-01-28T04:52:30;102646.84;;;3.30;85.32
16580;BME280;8402;51.466;6.806;2023-01-28T04:55:00;102652.63;;;3.27;84.99
16580;BME280;8402;51.466;6.806;2023-01-28T04:57:29;102642.34;;;3.24;85.25
16580;BME280;8402;51.466;6.806;2023-01-28T04:59:59;102644.44;;;3.22;85.03
16580;BME280;8402;51.466;6.806;2023-01-28T05:02:29;102644.44;;;3.22;85.59
16580;BME280;8402;51.466;6.806;2023-01-28T05:05:02;102641.94;;;3.20;85.46
16580;BME280;8402;51.466;6.806;2023-01-28T05:07:34;102635.75;;;3.20;85.38
16580;BME280;8402;51.466;6.806;2023-01-28T05:10:05;102634.13;;;3.19;85.24
16580;BME280;8402;51.466;6.806;2023-01-28T05:12:35;102635.53;;;3.21;85.60
16580;BME280;8402;51.466;6.806;2023-01-28T05:15:06;102630.84;;;3.17;84.76
16580;BME280;8402;51.466;6.806;2023-01-28T05:17:36;102639.94;;;3.16;85.02
16580;BME280;8402;51.466;6.806;2023-01-28T05:20:12;102632.50;;;3.18;85.98
16580;BME280;8402;51.466;6.806;2023-01-28T05:22:42;102631.63;;;3.24;87.31
16580;BME280;8402;51.466;6.806;2023-01-28T05:25:12;102639.84;;;3.29;87.49
16580;BME280;8402;51.466;6.806;2023-01-28T05:27:42;102639.41;;;3.32;86.23
16580;BME280;8402;51.466;6.806;2023-01-28T05:30:13;102644.31;;;3.35;86.91
16580;BME280;8402;51.466;6.806;2023-01-28T05:32:43;102649.91;;;3.34;86.32
16580;BME280;8402;51.466;6.806;2023-01-28T05:35:16;102651.59;;;3.28;85.09
16580;BME280;8402;51.466;6.806;2023-01-28T05:37:46;102659.63;;;3.28;86.08
16580;BME280;8402;51.466;6.806;2023-01-28T05:40:16;102650.56;;;3.29;86.45
16580;BME280;8402;51.466;6.806;2023-01-28T05:42:46;102648.31;;;3.26;85.22
16580;BME280;8402;51.466;6.806;2023-01-28T05:45:15;102645.03;;;3.24;85.96
16580;BME280;8402;51.466;6.806;2023-01-28T05:47:45;102661.13;;;3.24;86.41
16580;BME280;8402;51.466;6.806;2023-01-28T05:50:18;102672.50;;;3.19;85.23
16580;BME280;8402;51.466;6.806;2023-01-28T05:52:48;102682.84;;;3.16;84.35
16580;BME280;8402;51.466;6.806;2023-01-28T05:55:18;102680.00;;;3.11;84.03
16580;BME280;8402;51.466;6.806;2023-01-28T05:57:48;102676.91;;;3.07;83.97
16580;BME280;8402;51.466;6.806;2023-01-28T06:00:19;102673.00;;;3.10;85.35
16580;BME280;8402;51.466;6.806;2023-01-28T06:02:50;102671.34;;;3.09;85.20
16580;BME280;8402;51.466;6.806;2023-01-28T06:05:22;102680.44;;;3.08;84.40
16580;BME280;8402;51.466;6.806;2023-01-28T06:07:52;102670.91;;;3.12;85.28
16580;BME280;8402;51.466;6.806;2023-01-28T06:10:22;102674.44;;;3.06;84.54
16580;BME280;8402;51.466;6.806;2023-01-28T06:12:52;102674.63;;;3.11;85.77
16580;BME280;8402;51.466;6.806;2023-01-28T06:15:22;102667.19;;;3.13;86.11
16580;BME280;8402;51.466;6.806;2023-01-28T06:17:52;102670.03;;;3.18;86.61
16580;BME280;8402;51.466;6.806;2023-01-28T06:20:24;102670.25;;;3.16;86.26
16580;BME280;8402;51.466;6.806;2023-01-28T06:22:54;102669.44;;;3.16;86.04
16580;BME280;8402;51.466;6.806;2023-01-28T06:25:24;102668.41;;;3.17;86.31
16580;BME280;8402;51.466;6.806;2023-01-28T06:27:54;102670.63;;;3.20;87.11
16580;BME280;8402;51.466;6.806;2023-01-28T06:30:24;102674.13;;;3.20;86.74
16580;BME280;8402;51.466;6.806;2023-01-28T06:32:54;102677.91;;;3.13;84.69
16580;BME280;8402;51.466;6.806;2023-01-28T06:35:26;102676.72;;;3.09;85.05
16580;BME280;8402;51.466;6.806;2023-01-28T06:37:56;102680.00;;;3.11;85.86
16580;BME280;8402;51.466;6.806;2023-01-28T06:40:26;102691.16;;;3.08;85.44
16580;BME280;8402;51.466;6.806;2023-01-28T06:42:56;102682.09;;;3.09;86.06
16580;BME280;8402;51.466;6.806;2023-01-28T06:45:26;102674.19;;;3.14;86.68
16580;BME280;8402;51.466;6.806;2023-01-28T06:47:56;102665.13;;;3.15;86.26
16580;BME280;8402;51.466;6.806;2023-01-28T06:50:28;102662.00;;;3.18;86.61
16580;BME280;8402;51.466;6.806;2023-01-28T06:52:58;102665.91;;;3.22;87.28
16580;BME280;8402;51.466;6.806;2023-01-28T06:55:28;102663.81;;;3.24;87.60
16580;BME280;8402;51.466;6.806;2023-01-28T06:57:58;102678.41;;;3.28;88.08
16580;BME280;8402;51.466;6.806;2023-01-28T07:00:27;102680.69;;;3.31;87.47
16580;BME280;8402;51.466;6.806;2023-01-28T07:02:57;102681.56;;;3.25;86.28
16580;BME280;8402;51.466;6.806;2023-01-28T07:05:30;102679.50;;;3.20;85.81
16580;BME280;8402;51.466;6.806;2023-01-28T07:08:00;102678.69;;;3.20;86.32
16580;BME280;8402;51.466;6.806;2023-01-28T07:10:30;102687.56;;;3.20;86.55
16580;BME280;8402;51.466;6.806;2023-01-28T07:13:00;102688.19;;;3.22;86.82
16580;BME280;8402;51.466;6.806;2023-01-28T07:15:30;102685.28;;;3.24;86.90
16580;BME280;8402;51.466;6.806;2023-01-28T07:18:01;102684.81;;;3.27;87.42
16580;BME280;8402;51.466;6.806;2023-01-28T07:20:33;102680.69;;;3.31;87.94
16580;BME280;8402;51.466;6.806;2023-01-28T07:23:05;102689.31;;;3.33;87.50
16580;BME280;8402;51.466;6.806;2023-01-28T07:25:35;102678.00;;;3.31;87.32
16580;BME280;8402;51.466;6.806;2023-01-28T07:28:05;102681.09;;;3.28;86.78
16580;BME280;8402;51.466;6.806;2023-01-28T07:30:35;102676.19;;;3.25;87.14
16580;BME280;8402;51.466;6.806;2023-01-28T07:33:04;102689.00;;;3.23;87.21
16580;BME280;8402;51.466;6.806;2023-01-28T07:35:37;102682.00;;;3.22;87.84
16580;BME280;8402;51.466;6.806;2023-01-28T07:38:07;102680.78;;;3.18;86.81
16580;BME280;8402;51.466;6.806;2023-01-28T07:40:37;102684.50;;;3.17;86.14
16580;BME280;8402;51.466;6.806;2023-01-28T07:43:08;102692.97;;;3.14;86.07
16580;BME280;8402;51.466;6.806;2023-01-28T07:45:38;102693.63;;;3.09;86.06
16580;BME280;8402;51.466;6.806;2023-01-28T07:48:11;102689.91;;;3.10;87.16
16580;BME280;8402;51.466;6.806;2023-01-28T07:50:45;102696.09;;;3.11;86.77
16580;BME280;8402;51.466;6.806;2023-01-28T07:53:16;102690.28;;;3.14;86.69
16580;BME280;8402;51.466;6.806;2023-01-28T07:55:47;102696.28;;;3.16;87.21
16580;BME280;8402;51.466;6.806;2023-01-28T07:58:17;102710.53;;;3.10;85.43
16580;BME280;8402;51.466;6.806;2023-01-28T08:00:46;102727.50;;;3.03;84.96
16580;BME280;8402;51.466;6.806;2023-01-28T08:03:16;102731.22;;;3.02;85.88
16580;BME280;8402;51.466;6.806;2023-01-28T08:05:50;102734.53;;;2.98;85.55
16580;BME280;8402;51.466;6.806;2023-01-28T08:08:21;102726.25;;;2.99;85.64
16580;BME280;8402;51.466;6.806;2023-01-28T08:10:52;102729.63;;;2.88;84.20
16580;BME280;8402;51.466;6.806;2023-01-28T08:13:22;102728.59;;;2.89;85.37
16580;BME280;8402;51.466;6.806;2023-01-28T08:15:54;102739.13;;;2.84;84.48
16580;BME280;8402;51.466;6.806;2023-01-28T08:18:25;102733.78;;;2.84;84.72
16580;BME280;8402;51.466;6.806;2023-01-28T08:20:58;102734.59;;;2.85;85.21
16580;BME280;8402;51.466;6.806;2023-01-28T08:23:28;102739.75;;;2.86;85.31
16580;BME280;8402;51.466;6.806;2023-01-28T08:26:00;102744.50;;;2.84;85.14
16580;BME280;8402;51.466;6.806;2023-01-28T08:28:30;102743.25;;;2.87;85.57
16580;BME280;8402;51.466;6.806;2023-01-28T08:31:00;102743.66;;;2.90;85.74
16580;BME280;8402;51.466;6.806;2023-01-28T08:33:30;102746.94;;;2.92;85.16
16580;BME280;8402;51.466;6.806;2023-01-28T08:36:04;102761.81;;;2.88;84.09
16580;BME280;8402;51.466;6.806;2023-01-28T08:38:34;102769.63;;;2.90;84.87
16580;BME280;8402;51.466;6.806;2023-01-28T08:41:04;102767.16;;;2.95;85.74
16580;BME280;8402;51.466;6.806;2023-01-28T08:43:34;102782.41;;;2.94;85.06
16580;BME280;8402;51.466;6.806;2023-01-28T08:46:04;102783.25;;;2.88;84.39
16580;BME280;8402;51.466;6.806;2023-01-28T08:48:34;102780.81;;;2.87;84.77
16580;BME280;8402;51.466;6.806;2023-01-28T08:51:07;102797.31;;;2.77;82.83
16580;BME280;8402;51.466;6.806;2023-01-28T08:53:40;102803.13;;;2.74;83.36
16580;BME280;8402;51.466;6.806;2023-01-28T08:56:10;102808.47;;;2.74;83.83
16580;BME280;8402;51.466;6.806;2023-01-28T08:58:40;102809.69;;;2.78;84.24
16580;BME280;8402;51.466;6.806;2023-01-28T09:01:10;102806.78;;;2.86;85.15
16580;BME280;8402;51.466;6.806;2023-01-28T09:03:40;102803.69;;;2.89;84.49
16580;BME280;8402;51.466;6.806;2023-01-28T09:06:13;102804.72;;;2.88;83.78
16580;BME280;8402;51.466;6.806;2023-01-28T09:08:43;102817.69;;;2.91;84.70
16580;BME280;8402;51.466;6.806;2023-01-28T09:11:12;102815.44;;;2.88;83.72
16580;BME280;8402;51.466;6.806;2023-01-28T09:13:42;102825.56;;;2.86;84.25
16580;BME280;8402;51.466;6.806;2023-01-28T09:16:12;102837.28;;;2.85;83.83
16580;BME280;8402;51.466;6.806;2023-01-28T09:18:42;102823.88;;;2.85;84.26
16580;BME280;8402;51.466;6.806;2023-01-28T09:21:16;102826.56;;;2.85;83.45
16580;BME280;8402;51.466;6.806;2023-01-28T09:23:47;102829.91;;;2.74;82.66
16580;BME280;8402;51.466;6.806;2023-01-28T09:26:18;102836.53;;;2.65;81.39
16580;BME280;8402;51.466;6.806;2023-01-28T09:28:47;102835.50;;;2.66;81.97
16580;BME280;8402;51.466;6.806;2023-01-28T09:31:17;102836.91;;;2.75;83.91
16580;BME280;8402;51.466;6.806;2023-01-28T09:33:47;102838.38;;;2.71;82.24
16580;BME280;8402;51.466;6.806;2023-01-28T09:36:25;102838.56;;;2.76;82.91
16580;BME280;8402;51.466;6.806;2023-01-28T09:38:54;102846.38;;;2.84;83.75
16580;BME280;8402;51.466;6.806;2023-01-28T09:41:26;102851.53;;;2.86;82.93
16580;BME280;8402;51.466;6.806;2023-01-28T09:44:19;102850.31;;;2.88;82.41
16580;BME280;8402;51.466;6.806;2023-01-28T09:46:52;102852.16;;;2.88;81.89
16580;BME280;8402;51.466;6.806;2023-01-28T09:49:27;102860.59;;;2.91;82.61
16580;BME280;8402;51.466;6.806;2023-01-28T09:52:03;102847.19;;;2.91;81.99
16580;BME280;8402;51.466;6.806;2023-01-28T09:54:40;102840.63;;;2.87;81.60
16580;BME280;8402;51.466;6.806;2023-01-28T09:57:16;102836.06;;;2.94;82.15
16580;BME280;8402;51.466;6.806;2023-01-28T09:59:48;102840.34;;;3.02;82.51
16580;BME280;8402;51.466;6.806;2023-01-28T10:02:28;102838.50;;;2.96;80.73
16580;BME280;8402;51.466;6.806;2023-01-28T10:05:16;102845.13;;;2.93;80.82
16580;BME280;8402;51.466;6.806;2023-01-28T10:08:00;102843.84;;;3.02;82.02
16580;BME280;8402;51.466;6.806;2023-01-28T10:10:39;102850.88;;;2.97;80.88
16580;BME280;8402;51.466;6.806;2023-01-28T10:13:19;102842.22;;;3.01;81.73
16580;BME280;8402;51.466;6.806;2023-01-28T10:18:51;102835.56;;;3.11;82.63
16580;BME280;8402;51.466;6.806;2023-01-28T10:21:26;102831.00;;;3.18;82.74
16580;BME280;8402;51.466;6.806;2023-01-28T10:24:04;102817.38;;;3.19;81.84
16580;BME280;8402;51.466;6.806;2023-01-28T10:26:40;102817.13;;;3.27;82.55
16580;BME280;8402;51.466;6.806;2023-01-28T10:29:13;102820.22;;;3.31;82.64
16580;BME280;8402;51.466;6.806;2023-01-28T10:31:51;102817.38;;;3.19;80.62
16580;BME280;8402;51.466;6.806;2023-01-28T10:34:22;102821.91;;;3.19;81.06
16580;BME280;8402;51.466;6.806;2023-01-28T10:36:52;102828.09;;;3.19;81.39
16580;BME280;8402;51.466;6.806;2023-01-28T10:39:25;102830.19;;;3.11;80.49
16580;BME280;8402;51.466;6.806;2023-01-28T10:41:57;102831.66;;;3.07;80.85
16580;BME280;8402;51.466;6.806;2023-01-28T10:44:31;102838.50;;;3.02;80.97
16580;BME280;8402;51.466;6.806;2023-01-28T10:47:08;102829.38;;;3.10;81.92
16580;BME280;8402;51.466;6.806;2023-01-28T10:49:44;102839.25;;;3.16;82.45
16580;BME280;8402;51.466;6.806;2023-01-28T10:52:15;102851.63;;;3.24;82.77
16580;BME280;8402;51.466;6.806;2023-01-28T10:54:58;102841.28;;;3.21;81.35
16580;BME280;8402;51.466;6.806;2023-01-28T10:57:28;102847.88;;;3.25;81.41
16580;BME280;8402;51.466;6.806;2023-01-28T11:00:09;102858.22;;;3.21;80.56
16580;BME280;8402;51.466;6.806;2023-01-28T11:02:40;102850.78;;;3.23;81.33
16580;BME280;8402;51.466;6.806;2023-01-28T11:05:16;102848.13;;;3.17;80.29
16580;BME280;8402;51.466;6.806;2023-01-28T11:07:47;102850.78;;;3.23;81.68
16580;BME280;8402;51.466;6.806;2023-01-28T11:10:30;102859.09;;;3.15;80.34
16580;BME280;8402;51.466;6.806;2023-01-28T11:13:03;102869.59;;;3.17;80.58
16580;BME280;8402;51.466;6.806;2023-01-28T11:15:33;102868.78;;;3.16;80.33
16580;BME280;8402;51.466;6.806;2023-01-28T11:18:04;102868.56;;;3.18;81.29
16580;BME280;8402;51.466;6.806;2023-01-28T11:20:49;102861.53;;;3.17;80.54
16580;BME280;8402;51.466;6.806;2023-01-28T11:23:23;102862.34;;;3.24;81.18
16580;BME280;8402;51.466;6.806;2023-01-28T11:26:05;102855.75;;;3.20;80.27
16580;BME280;8402;51.466;6.806;2023-01-28T11:28:39;102858.59;;;3.31;82.17
16580;BME280;8402;51.466;6.806;2023-01-28T11:31:12;102854.00;;;3.45;83.08
16580;BME280;8402;51.466;6.806;2023-01-28T11:33:48;102839.53;;;3.46;81.34
16580;BME280;8402;51.466;6.806;2023-01-28T11:36:20;102840.34;;;3.47;80.75
16580;BME280;8402;51.466;6.806;2023-01-28T11:38:51;102839.53;;;3.46;81.18
16580;BME280;8402;51.466;6.806;2023-01-28T11:41:27;102846.56;;;3.41;80.63
16580;BME280;8402;51.466;6.806;2023-01-28T11:43:59;102847.78;;;3.51;82.15
16580;BME280;8402;51.466;6.806;2023-01-28T11:46:49;102837.88;;;3.45;80.80
16580;BME280;8402;51.466;6.806;2023-01-28T11:49:27;102838.75;;;3.39;78.83
16580;BME280;8402;51.466;6.806;2023-01-28T11:52:08;102844.53;;;3.36;79.48
16580;BME280;8402;51.466;6.806;2023-01-28T11:54:50;102840.88;;;3.24;79.19
16580;BME280;8402;51.466;6.806;2023-01-28T11:57:32;102834.22;;;3.33;80.25
16580;BME280;8402;51.466;6.806;2023-01-28T12:00:24;102828.22;;;3.38;80.50
16580;BME280;8402;51.466;6.806;2023-01-28T12:03:04;102820.13;;;3.44;81.40
16580;BME280;8402;51.466;6.806;2023-01-28T12:05:46;102801.50;;;3.49;81.69
16580;BME280;8402;51.466;6.806;2023-01-28T12:08:21;102807.25;;;3.59;82.58
16580;BME280;8402;51.466;6.806;2023-01-28T12:11:14;102800.56;;;3.69;82.33
16580;BME280;8402;51.466;6.806;2023-01-28T12:14:15;102793.06;;;3.77;81.94
16580;BME280;8402;51.466;6.806;2023-01-28T12:17:11;102788.47;;;3.84;82.72
16580;BME280;8402;51.466;6.806;2023-01-28T12:20:05;102782.28;;;3.84;81.42
16580;BME280;8402;51.466;6.806;2023-01-28T12:22:56;102782.72;;;3.81;79.64
16580;BME280;8402;51.466;6.806;2023-01-28T12:25:42;102789.72;;;3.82;79.78
16580;BME280;8402;51.466;6.806;2023-01-28T12:28:25;102779.34;;;3.85;80.09
16580;BME280;8402;51.466;6.806;2023-01-28T12:31:24;102752.66;;;3.91;81.21
16580;BME280;8402;51.466;6.806;2023-01-28T12:34:14;102751.50;;;4.05;82.09
16580;BME280;8402;51.466;6.806;2023-01-28T12:36:56;102748.28;;;3.96;77.94
16580;BME280;8402;51.466;6.806;2023-01-28T12:39:38;102716.38;;;4.06;80.72
16580;BME280;8402;51.466;6.806;2023-01-28T12:42:18;102708.03;;;4.14;81.29
16580;BME280;8402;51.466;6.806;2023-01-28T12:44:53;102699.06;;;4.02;78.68
16580;BME280;8402;51.466;6.806;2023-01-28T12:47:34;102692.81;;;4.08;80.94
16580;BME280;8402;51.466;6.806;2023-01-28T12:50:11;102694.59;;;4.14;80.94
16580;BME280;8402;51.466;6.806;2023-01-28T12:52:46;102700.56;;;4.17;78.14
16580;BME280;8402;51.466;6.806;2023-01-28T12:55:21;102689.81;;;4.17;80.38
16580;BME280;8402;51.466;6.806;2023-01-28T12:57:58;102703.09;;;4.11;78.47
16580;BME280;8402;51.466;6.806;2023-01-28T13:00:32;102717.34;;;4.12;80.23
16580;BME280;8402;51.466;6.806;2023-01-28T13:03:10;102735.78;;;4.08;77.64
16580;BME280;8402;51.466;6.806;2023-01-28T13:05:48;102732.66;;;4.11;79.24
16580;BME280;8402;51.466;6.806;2023-01-28T13:08:22;102745.03;;;4.12;79.83
16580;BME280;8402;51.466;6.806;2023-01-28T13:10:54;102741.91;;;4.16;79.89
16580;BME280;8402;51.466;6.806;2023-01-28T13:13:29;102732.34;;;4.20;79.82
16580;BME280;8402;51.466;6.806;2023-01-28T13:16:02;102728.19;;;4.24;79.91
16580;BME280;8402;51.466;6.806;2023-01-28T13:18:42;102727.13;;;4.25;80.93
16580;BME280;8402;51.466;6.806;2023-01-28T13:21:16;102731.16;;;4.34;81.04
16580;BME280;8402;51.466;6.806;2023-01-28T13:23:47;102732.44;;;4.31;80.04
16580;BME280;8402;51.466;6.806;2023-01-28T13:26:28;102737.59;;;4.33;80.73
16580;BME280;8402;51.466;6.806;2023-01-28T13:29:17;102737.59;;;4.33;79.57
16580;BME280;8402;51.466;6.806;2023-01-28T13:31:49;102738.34;;;4.40;81.09
16580;BME280;8402;51.466;6.806;2023-01-28T13:34:33;102748.72;;;4.36;79.36
16580;BME280;8402;51.466;6.806;2023-01-28T13:37:15;102745.81;;;4.38;79.69
16580;BME280;8402;51.466;6.806;2023-01-28T13:39:49;102738.50;;;4.45;80.15
16580;BME280;8402;51.466;6.806;2023-01-28T13:42:24;102727.75;;;4.45;80.33
16580;BME280;8402;51.466;6.806;2023-01-28T13:44:55;102736.56;;;4.52;80.67
16580;BME280;8402;51.466;6.806;2023-01-28T13:47:30;102733.56;;;4.60;81.35
16580;BME280;8402;51.466;6.806;2023-01-28T13:50:10;102745.28;;;4.66;81.04